Time;durP1;ratioP1;P1;durP2;ratioP2;P2;SDS_P1;SDS_P2;PMS_P1;PMS_P2;Temp;Humidity;BMP_temperature;BMP_pressure;BME280_temperature;BME280_humidity;BME280_pressure;Samples;Min_cycle;Max_cycle;Signal;HPM_P1;HPM_P2
2022/08/16 00:00:59;;;;;;;4.47;4.07;;;24.80;96.20;;;;;;5010965;28;20339;-74
2022/08/16 00:03:26;;;;;;;4.90;4.13;;;24.80;96.30;;;;;;5010061;28;20092;-74
2022/08/16 00:05:51;;;;;;;5.13;4.15;;;24.80;96.50;;;;;;5011054;28;20029;-74
2022/08/16 00:08:18;;;;;;;5.15;4.22;;;24.80;97.10;;;;;;5009939;28;20658;-74
2022/08/16 00:10:44;;;;;;;5.03;4.53;;;24.80;97.10;;;;;;5009714;28;20033;-74
2022/08/16 00:13:10;;;;;;;8.77;4.47;;;24.80;97.60;;;;;;5010165;28;20032;-75
2022/08/16 00:15:44;;;;;;;4.53;4.07;;;24.80;97.20;;;;;;5010795;28;20177;-75
2022/08/16 00:18:10;;;;;;;6.18;4.75;;;24.80;97.60;;;;;;5008464;28;20022;-74
2022/08/16 00:20:38;;;;;;;8.00;4.35;;;24.90;97.90;;;;;;5009406;28;20030;-75
2022/08/16 00:23:04;;;;;;;5.68;4.60;;;24.90;98.00;;;;;;5010010;28;20485;-75
2022/08/16 00:25:30;;;;;;;5.93;4.55;;;24.90;98.20;;;;;;5009487;28;20381;-75
2022/08/16 00:27:56;;;;;;;6.68;4.63;;;24.90;98.30;;;;;;5009814;28;20022;-74
2022/08/16 00:30:22;;;;;;;9.63;4.78;;;24.90;98.50;;;;;;5009620;28;20026;-74
2022/08/16 00:32:52;;;;;;;5.90;4.68;;;24.90;98.40;;;;;;5009735;28;20559;-74
2022/08/16 00:35:22;;;;;;;6.30;4.43;;;24.80;98.60;;;;;;5004063;28;20109;-75
2022/08/16 00:37:48;;;;;;;5.00;4.60;;;24.80;98.80;;;;;;5009674;28;20058;-75
2022/08/16 00:40:19;;;;;;;5.25;4.60;;;24.80;99.10;;;;;;5020518;28;20026;-75
2022/08/16 00:42:45;;;;;;;5.38;4.43;;;24.80;99.10;;;;;;5013530;28;20017;-75
2022/08/16 00:45:27;;;;;;;4.90;4.50;;;24.80;99.20;;;;;;5014079;28;20506;-75
2022/08/16 00:47:54;;;;;;;5.72;4.72;;;24.70;99.20;;;;;;5013115;28;20615;-75
2022/08/16 00:50:23;;;;;;;6.82;4.88;;;24.80;99.60;;;;;;5014015;28;20022;-75
2022/08/16 00:52:49;;;;;;;9.23;4.50;;;24.70;99.40;;;;;;5012928;28;20054;-75
2022/08/16 00:55:15;;;;;;;6.00;5.00;;;24.70;99.50;;;;;;5012621;28;20453;-75
2022/08/16 00:57:41;;;;;;;5.55;4.70;;;24.70;99.80;;;;;;5013258;28;20049;-75
2022/08/16 01:00:07;;;;;;;6.63;4.90;;;24.80;99.90;;;;;;5013381;28;20456;-75
2022/08/16 01:02:34;;;;;;;7.93;4.75;;;24.80;99.90;;;;;;5013185;28;20034;-74
2022/08/16 01:05:00;;;;;;;6.65;4.78;;;24.80;99.90;;;;;;5010550;28;20030;-74
2022/08/16 01:07:27;;;;;;;6.00;4.75;;;24.80;99.90;;;;;;5010629;28;20660;-75
2022/08/16 01:09:53;;;;;;;12.52;5.38;;;24.80;99.90;;;;;;5012891;28;20041;-75
2022/08/16 01:12:20;;;;;;;5.57;4.75;;;24.80;99.90;;;;;;5012624;28;20022;-74
2022/08/16 01:14:53;;;;;;;5.78;4.90;;;24.80;99.90;;;;;;5013747;28;20030;-74
2022/08/16 01:17:20;;;;;;;12.45;6.65;;;24.80;99.90;;;;;;5013111;28;20029;-74
2022/08/16 01:19:50;;;;;;;82.80;14.65;;;24.40;99.90;;;;;;5012176;28;20484;-75
2022/08/16 01:23:11;;;;;;;54.58;13.73;;;23.20;99.90;;;;;;5012845;28;20026;-78
2022/08/16 01:25:43;;;;;;;56.67;14.95;;;21.30;99.90;;;;;;5007337;28;20396;-81
2022/08/16 01:28:13;;;;;;;63.80;16.65;;;20.70;99.90;;;;;;5011552;28;20116;-81
2022/08/16 01:30:43;;;;;;;85.70;21.02;;;20.40;99.90;;;;;;5012459;28;20026;-81
2022/08/16 01:33:09;;;;;;;54.67;19.80;;;20.40;99.90;;;;;;5012701;28;20112;-81
2022/08/16 01:35:42;;;;;;;44.55;20.33;;;20.30;99.90;;;;;;5014136;28;20219;-87
2022/08/16 01:38:24;;;;;;;150.98;27.50;;;20.20;99.90;;;;;;5012739;28;20030;-77
2022/08/16 01:40:54;;;;;;;50.28;24.02;;;20.00;99.90;;;;;;5013074;28;20365;-79
2022/08/16 01:43:22;;;;;;;57.65;24.30;;;19.90;99.90;;;;;;5012334;28;20018;-82
2022/08/16 01:45:51;;;;;;;40.30;22.92;;;19.90;99.90;;;;;;5012067;28;20179;-83
2022/08/16 01:48:17;;;;;;;118.45;40.90;;;19.80;99.90;;;;;;5013211;28;20026;-83
2022/08/16 01:50:44;;;;;;;172.57;51.67;;;20.00;99.90;;;;;;5013450;28;20539;-84
2022/08/16 01:53:11;;;;;;;119.63;47.25;;;20.30;99.90;;;;;;5012289;28;20045;-82
2022/08/16 01:55:39;;;;;;;169.40;58.72;;;20.70;99.90;;;;;;5013612;28;20048;-81
2022/08/16 01:58:05;;;;;;;184.10;55.25;;;20.80;99.90;;;;;;5012414;28;20026;-81
2022/08/16 02:00:31;;;;;;;199.50;56.15;;;20.80;99.90;;;;;;5012825;28;20041;-81
2022/08/16 02:02:57;;;;;;;185.02;57.10;;;21.00;99.90;;;;;;5010500;28;20032;-80
2022/08/16 02:05:23;;;;;;;231.40;63.92;;;21.20;99.90;;;;;;5012934;28;20085;-82
2022/08/16 02:07:49;;;;;;;142.43;50.22;;;21.30;99.90;;;;;;5011770;28;20025;-80
2022/08/16 02:10:15;;;;;;;129.90;46.47;;;21.30;99.90;;;;;;5012820;28;20038;-81
2022/08/16 02:12:41;;;;;;;145.02;45.22;;;21.40;99.90;;;;;;5010983;28;20030;-81
2022/08/16 02:15:07;;;;;;;144.75;44.35;;;21.30;99.90;;;;;;5012374;28;20040;-80
2022/08/16 02:17:34;;;;;;;171.50;48.67;;;21.30;99.90;;;;;;5011600;28;20109;-80
2022/08/16 02:20:00;;;;;;;147.80;42.78;;;21.20;99.90;;;;;;5011531;28;20026;-83
2022/08/16 02:22:27;;;;;;;124.47;39.13;;;21.10;99.90;;;;;;5010212;28;20504;-80
2022/08/16 02:24:53;;;;;;;91.85;32.75;;;20.90;99.90;;;;;;5010949;28;20532;-80
2022/08/16 02:27:18;;;;;;;112.22;36.38;;;20.70;99.90;;;;;;5011738;28;20068;-79
2022/08/16 02:29:44;;;;;;;116.80;36.80;;;20.50;99.90;;;;;;5012065;28;20032;-79
2022/08/16 02:32:14;;;;;;;114.38;38.40;;;20.40;99.90;;;;;;5011488;28;20095;-79
2022/08/16 02:34:39;;;;;;;87.10;33.50;;;20.30;99.90;;;;;;5010755;28;20030;-79
2022/08/16 02:37:05;;;;;;;124.70;43.20;;;20.30;99.90;;;;;;5010155;28;20025;-80
2022/08/16 02:39:31;;;;;;;85.57;35.85;;;20.30;99.90;;;;;;5010248;28;20028;-80
2022/08/16 02:41:57;;;;;;;70.10;34.75;;;20.50;99.90;;;;;;5011630;28;20388;-78
2022/08/16 02:44:23;;;;;;;69.95;33.95;;;20.50;99.90;;;;;;5012000;28;20026;-79
2022/08/16 02:46:49;;;;;;;52.45;30.17;;;20.60;99.90;;;;;;5011348;28;20026;-79
2022/08/16 02:49:15;;;;;;;51.60;28.00;;;20.60;99.90;;;;;;5010238;28;20618;-78
2022/08/16 02:51:42;;;;;;;40.38;26.23;;;20.60;99.90;;;;;;5011245;28;20036;-79
2022/08/16 02:54:08;;;;;;;44.78;26.38;;;20.50;99.90;;;;;;5011070;28;20022;-79
2022/08/16 02:56:34;;;;;;;28.67;20.85;;;20.50;99.90;;;;;;5011801;28;20060;-78
2022/08/16 02:59:00;;;;;;;37.00;24.90;;;20.40;99.90;;;;;;5010945;28;20054;-80
2022/08/16 03:01:29;;;;;;;29.52;22.50;;;20.20;99.90;;;;;;5011772;28;20373;-81
2022/08/16 03:03:58;;;;;;;31.20;23.88;;;20.30;99.90;;;;;;5010697;28;20021;-82
2022/08/16 03:06:25;;;;;;;40.10;26.23;;;20.30;99.90;;;;;;5010512;28;20428;-80
2022/08/16 03:08:51;;;;;;;25.42;18.45;;;20.40;99.90;;;;;;5009538;28;20033;-80
2022/08/16 03:11:18;;;;;;;20.83;15.88;;;20.40;99.90;;;;;;4992155;28;20030;-80
2022/08/16 03:13:46;;;;;;;25.00;17.67;;;20.30;99.90;;;;;;5009765;28;20022;-81
2022/08/16 03:16:12;;;;;;;29.75;19.10;;;20.20;99.90;;;;;;5011768;28;20388;-82
2022/08/16 03:18:38;;;;;;;24.58;19.70;;;20.30;99.90;;;;;;5011050;28;20076;-81
2022/08/16 03:21:06;;;;;;;30.52;21.75;;;20.20;99.90;;;;;;5009663;28;20057;-80
2022/08/16 03:23:32;;;;;;;26.60;21.00;;;20.20;99.90;;;;;;5010190;28;20029;-80
2022/08/16 03:25:58;;;;;;;31.55;22.15;;;20.20;99.90;;;;;;5010269;28;20025;-79
2022/08/16 03:28:23;;;;;;;36.13;25.52;;;20.20;99.90;;;;;;5010578;28;20028;-80
2022/08/16 03:30:49;;;;;;;30.80;21.38;;;20.30;99.90;;;;;;5010034;28;20030;-80
2022/08/16 03:33:15;;;;;;;38.70;22.80;;;20.20;99.90;;;;;;5008975;28;20443;-79
2022/08/16 03:35:41;;;;;;;26.40;20.98;;;20.10;99.90;;;;;;5009873;28;20069;-80
2022/08/16 03:38:10;;;;;;;18.80;15.18;;;20.10;99.90;;;;;;5009132;28;20404;-80
2022/08/16 03:40:37;;;;;;;23.83;14.52;;;20.00;99.90;;;;;;5010049;28;20113;-79
2022/08/16 03:43:04;;;;;;;19.58;14.30;;;19.80;99.90;;;;;;5010407;28;20030;-81
2022/08/16 03:45:32;;;;;;;19.02;14.70;;;19.60;99.90;;;;;;5010114;28;20663;-80
2022/08/16 03:47:59;;;;;;;16.77;14.18;;;19.60;99.90;;;;;;5010524;28;20076;-81
2022/08/16 03:50:25;;;;;;;14.30;12.15;;;19.60;99.90;;;;;;5011303;28;20480;-79
2022/08/16 03:52:51;;;;;;;15.20;13.48;;;19.60;99.90;;;;;;5009765;28;20054;-78
2022/08/16 03:55:17;;;;;;;19.08;15.20;;;19.60;99.90;;;;;;5010942;28;20046;-79
2022/08/16 03:57:43;;;;;;;17.00;12.70;;;19.70;99.90;;;;;;5010646;28;20022;-78
2022/08/16 04:00:15;;;;;;;13.88;12.10;;;19.70;99.90;;;;;;5011108;28;20057;-80
2022/08/16 04:02:41;;;;;;;14.93;11.65;;;19.60;99.90;;;;;;5008954;28;20068;-80
2022/08/16 04:05:08;;;;;;;14.88;12.90;;;19.60;99.90;;;;;;5010833;28;20033;-80
2022/08/16 04:07:34;;;;;;;18.42;14.15;;;19.60;99.90;;;;;;5010275;28;20080;-80
2022/08/16 04:09:59;;;;;;;14.02;12.07;;;19.60;99.90;;;;;;5009727;28;20034;-79
2022/08/16 04:12:25;;;;;;;11.48;10.30;;;19.60;99.90;;;;;;5010228;28;20014;-80
2022/08/16 04:14:51;;;;;;;12.32;10.00;;;19.60;99.90;;;;;;5012270;28;20088;-80
2022/08/16 04:17:17;;;;;;;16.05;10.95;;;19.60;99.90;;;;;;5014366;28;20018;-80
2022/08/16 04:19:46;;;;;;;11.95;10.75;;;19.60;99.90;;;;;;5014318;28;20041;-80
2022/08/16 04:22:11;;;;;;;12.98;11.02;;;19.60;99.90;;;;;;5013904;28;20025;-80
2022/08/16 04:24:37;;;;;;;11.55;10.45;;;19.70;99.90;;;;;;5014495;28;20026;-80
2022/08/16 04:27:03;;;;;;;11.63;9.23;;;19.70;99.90;;;;;;5013687;28;20026;-80
2022/08/16 04:29:29;;;;;;;11.35;9.07;;;19.70;99.90;;;;;;5013022;28;20026;-80
2022/08/16 04:31:56;;;;;;;13.02;10.70;;;19.60;99.90;;;;;;5013926;28;20377;-80
2022/08/16 04:34:23;;;;;;;11.15;10.05;;;19.60;99.90;;;;;;5013971;28;20050;-80
2022/08/16 04:36:49;;;;;;;12.98;10.10;;;19.70;99.90;;;;;;5013761;28;20104;-80
2022/08/16 04:39:15;;;;;;;12.85;9.70;;;19.80;99.90;;;;;;5012830;28;20097;-79
2022/08/16 04:41:41;;;;;;;10.95;9.88;;;19.80;99.90;;;;;;5012683;28;20484;-80
2022/08/16 04:44:06;;;;;;;12.63;10.23;;;19.80;99.90;;;;;;5013587;28;20030;-80
2022/08/16 04:46:32;;;;;;;11.07;8.45;;;19.80;99.90;;;;;;5013021;28;20121;-81
2022/08/16 04:48:58;;;;;;;11.68;8.20;;;19.80;99.90;;;;;;5011867;28;20024;-80
2022/08/16 04:51:24;;;;;;;9.63;7.47;;;19.70;99.90;;;;;;5012701;28;20459;-80
2022/08/16 04:53:49;;;;;;;8.20;6.97;;;19.70;99.90;;;;;;5011890;28;20041;-79
2022/08/16 04:56:17;;;;;;;9.32;8.38;;;19.80;99.90;;;;;;5012650;28;20034;-79
2022/08/16 04:58:43;;;;;;;8.07;7.28;;;19.90;99.90;;;;;;5013215;28;20033;-79
2022/08/16 05:01:09;;;;;;;8.80;6.70;;;19.80;99.90;;;;;;5014081;28;20014;-80
2022/08/16 05:03:35;;;;;;;10.00;7.68;;;19.80;99.90;;;;;;5013141;28;20369;-78
2022/08/16 05:06:01;;;;;;;7.80;7.00;;;19.90;99.90;;;;;;5013927;28;20033;-78
2022/08/16 05:08:28;;;;;;;7.85;7.05;;;19.90;99.90;;;;;;5013235;28;20042;-77
2022/08/16 05:10:54;;;;;;;6.97;6.38;;;19.90;99.90;;;;;;5013455;28;20082;-77
2022/08/16 05:13:19;;;;;;;8.30;6.80;;;19.80;99.90;;;;;;5011691;28;20124;-78
2022/08/16 05:15:47;;;;;;;8.00;6.25;;;19.90;99.90;;;;;;5014999;28;20432;-78
2022/08/16 05:18:14;;;;;;;9.65;6.22;;;20.00;99.90;;;;;;5012919;28;20109;-77
2022/08/16 05:20:39;;;;;;;10.43;7.18;;;20.00;99.90;;;;;;5013410;28;20075;-77
2022/08/16 05:23:05;;;;;;;7.30;6.70;;;20.10;99.90;;;;;;5012955;28;20358;-77
2022/08/16 05:25:31;;;;;;;8.27;5.55;;;20.20;99.90;;;;;;5013025;28;20026;-78
2022/08/16 05:27:58;;;;;;;7.13;6.15;;;20.10;99.90;;;;;;5012667;28;20029;-76
2022/08/16 05:30:24;;;;;;;6.50;5.78;;;20.20;99.90;;;;;;5012072;28;20018;-76
2022/08/16 05:32:50;;;;;;;7.07;6.40;;;20.20;99.90;;;;;;5012757;28;20034;-76
2022/08/16 05:35:17;;;;;;;9.88;6.47;;;20.30;99.90;;;;;;5011690;28;20034;-76
2022/08/16 05:37:43;;;;;;;7.40;6.68;;;20.40;99.90;;;;;;5012508;28;20427;-76
2022/08/16 05:40:11;;;;;;;9.02;6.45;;;20.50;99.90;;;;;;5013153;28;20029;-76
2022/08/16 05:42:37;;;;;;;7.70;6.78;;;20.60;99.90;;;;;;5012640;28;20022;-76
2022/08/16 05:45:04;;;;;;;8.15;7.10;;;20.70;99.90;;;;;;5015603;28;20034;-76
2022/08/16 05:47:30;;;;;;;10.65;7.43;;;20.70;99.90;;;;;;5012385;28;20092;-76
2022/08/16 05:49:56;;;;;;;13.48;6.78;;;20.80;99.90;;;;;;5012783;28;20078;-76
2022/08/16 05:52:21;;;;;;;9.80;7.05;;;20.90;99.90;;;;;;5012232;28;20046;-77
2022/08/16 05:54:47;;;;;;;9.07;6.65;;;21.00;99.90;;;;;;5012813;28;20081;-76
2022/08/16 05:57:14;;;;;;;6.95;6.25;;;21.00;99.90;;;;;;5010913;28;20025;-77
2022/08/16 05:59:40;;;;;;;8.35;6.00;;;20.90;99.90;;;;;;5012587;28;20026;-76
2022/08/16 06:02:06;;;;;;;8.43;5.95;;;20.90;99.90;;;;;;5012328;28;20416;-77
2022/08/16 06:04:32;;;;;;;8.77;6.35;;;20.90;99.90;;;;;;5012363;28;20018;-79
2022/08/16 06:06:58;;;;;;;9.85;6.45;;;20.80;99.90;;;;;;5010699;28;20022;-77
2022/08/16 06:09:25;;;;;;;11.05;5.15;;;20.90;99.90;;;;;;5012650;28;20487;-80
2022/08/16 06:11:51;;;;;;;6.50;5.60;;;20.80;99.90;;;;;;5012066;28;20022;-79
2022/08/16 06:14:17;;;;;;;7.88;4.45;;;21.00;99.90;;;;;;5013489;28;20045;-79
2022/08/16 06:16:43;;;;;;;10.15;4.45;;;21.10;99.90;;;;;;5011144;28;20393;-78
2022/08/16 06:19:09;;;;;;;6.53;4.13;;;21.10;99.90;;;;;;5011751;28;20030;-79
2022/08/16 06:21:35;;;;;;;6.05;4.63;;;21.20;99.90;;;;;;5010814;28;20018;-78
2022/08/16 06:24:01;;;;;;;6.75;4.93;;;21.30;99.90;;;;;;5012028;28;20084;-76
2022/08/16 06:26:27;;;;;;;8.15;5.15;;;21.50;99.90;;;;;;5012468;28;20511;-77
2022/08/16 06:28:53;;;;;;;5.93;4.50;;;21.70;99.90;;;;;;5010060;28;20026;-77
2022/08/16 06:31:18;;;;;;;6.80;4.07;;;21.80;99.90;;;;;;5012399;28;20061;-76
2022/08/16 06:33:44;;;;;;;5.65;4.00;;;21.80;99.90;;;;;;5011064;28;20018;-78
2022/08/16 06:36:12;;;;;;;7.20;3.92;;;21.80;99.90;;;;;;5012166;28;20083;-79
2022/08/16 06:38:38;;;;;;;6.15;3.38;;;21.70;99.90;;;;;;5010728;28;20025;-78
2022/08/16 06:41:06;;;;;;;5.47;3.42;;;21.70;99.90;;;;;;5012223;28;20388;-78
2022/08/16 06:43:33;;;;;;;8.80;3.88;;;21.60;99.90;;;;;;5011127;28;20477;-78
2022/08/16 06:46:00;;;;;;;3.60;3.22;;;21.80;99.90;;;;;;5026048;28;20497;-78
2022/08/16 06:48:26;;;;;;;3.33;2.83;;;21.90;99.90;;;;;;5011245;28;20626;-78
2022/08/16 06:50:52;;;;;;;4.43;3.17;;;21.90;99.90;;;;;;5011813;28;20026;-77
2022/08/16 06:53:19;;;;;;;3.60;3.03;;;22.00;99.90;;;;;;5011054;28;20053;-78
2022/08/16 06:55:44;;;;;;;3.83;3.00;;;21.90;99.90;;;;;;5011840;28;20562;-78
2022/08/16 06:58:11;;;;;;;4.15;3.05;;;21.90;99.90;;;;;;5011171;28;20018;-78
2022/08/16 07:00:37;;;;;;;10.68;3.75;;;22.00;99.90;;;;;;5010368;28;20116;-78
2022/08/16 07:03:04;;;;;;;3.47;2.97;;;22.10;99.90;;;;;;5011193;28;20022;-81
2022/08/16 07:05:30;;;;;;;4.82;3.10;;;22.30;99.90;;;;;;5011569;28;20109;-79
2022/08/16 07:07:56;;;;;;;7.22;3.03;;;22.30;99.90;;;;;;5009443;28;20034;-78
2022/08/16 07:10:23;;;;;;;4.25;2.78;;;22.40;99.90;;;;;;5011652;28;20028;-78
2022/08/16 07:12:50;;;;;;;3.97;2.80;;;22.40;99.90;;;;;;5010859;28;20022;-77
2022/08/16 07:15:19;;;;;;;5.45;3.15;;;22.40;99.90;;;;;;5012561;28;20036;-76
2022/08/16 07:17:45;;;;;;;7.03;2.60;;;22.40;99.90;;;;;;5010778;28;20026;-77
2022/08/16 07:20:12;;;;;;;3.95;2.83;;;22.40;99.90;;;;;;5009648;28;20033;-77
2022/08/16 07:22:39;;;;;;;4.03;2.90;;;22.30;99.90;;;;;;5010681;28;20014;-77
2022/08/16 07:25:08;;;;;;;3.42;2.60;;;22.30;99.90;;;;;;5010447;28;20026;-76
2022/08/16 07:27:34;;;;;;;6.07;3.33;;;22.20;99.90;;;;;;5010687;28;20507;-77
2022/08/16 07:30:00;;;;;;;4.20;2.60;;;22.30;99.90;;;;;;5011318;28;20030;-76
2022/08/16 07:32:26;;;;;;;6.65;2.83;;;22.30;99.90;;;;;;5010707;28;20026;-77
2022/08/16 07:34:51;;;;;;;4.80;3.10;;;22.30;99.90;;;;;;5011092;28;20283;-78
2022/08/16 07:37:17;;;;;;;5.45;2.97;;;22.40;99.90;;;;;;5009453;28;20117;-77
2022/08/16 07:39:43;;;;;;;6.03;2.70;;;22.50;99.90;;;;;;5011460;28;20366;-78
2022/08/16 07:42:10;;;;;;;3.72;2.90;;;22.50;99.90;;;;;;5010619;28;20084;-77
2022/08/16 07:44:35;;;;;;;3.60;2.58;;;22.60;99.90;;;;;;5012279;28;20460;-77
2022/08/16 07:47:01;;;;;;;3.60;2.83;;;22.70;99.90;;;;;;5010342;28;20096;-78
2022/08/16 07:49:26;;;;;;;6.65;2.85;;;22.80;99.90;;;;;;5011965;28;20048;-78
2022/08/16 07:51:52;;;;;;;4.95;2.75;;;22.90;99.90;;;;;;5013385;28;20057;-78
2022/08/16 07:54:19;;;;;;;8.02;2.60;;;23.00;99.90;;;;;;5013937;28;20049;-78
2022/08/16 07:56:45;;;;;;;3.50;2.55;;;23.10;99.90;;;;;;5013498;28;20169;-77
2022/08/16 07:59:11;;;;;;;4.65;3.10;;;23.20;99.90;;;;;;5014842;28;20160;-78
2022/08/16 08:01:37;;;;;;;2.63;2.42;;;23.20;99.90;;;;;;5014844;28;20109;-78
2022/08/16 08:04:04;;;;;;;4.95;2.95;;;23.30;99.90;;;;;;5014056;28;20026;-77
2022/08/16 08:06:31;;;;;;;3.38;2.38;;;23.40;99.90;;;;;;5014889;28;20037;-77
2022/08/16 08:08:58;;;;;;;3.40;2.80;;;23.50;99.90;;;;;;5012942;28;20116;-78
2022/08/16 08:11:25;;;;;;;5.93;2.78;;;23.60;99.90;;;;;;5015099;28;20025;-79
2022/08/16 08:13:53;;;;;;;6.45;2.65;;;23.70;99.90;;;;;;5012573;28;20452;-78
2022/08/16 08:16:20;;;;;;;4.03;2.53;;;23.80;99.90;;;;;;4995201;28;20034;-79
2022/08/16 08:18:47;;;;;;;4.10;2.70;;;23.80;99.90;;;;;;5011906;28;20022;-78
2022/08/16 08:21:13;;;;;;;4.20;2.53;;;23.90;99.90;;;;;;5014654;28;20022;-78
2022/08/16 08:23:39;;;;;;;2.53;2.33;;;23.90;99.90;;;;;;5013984;28;20112;-79
2022/08/16 08:26:05;;;;;;;4.50;2.78;;;24.00;99.90;;;;;;5014650;28;20061;-78
2022/08/16 08:28:31;;;;;;;3.67;2.85;;;24.10;99.90;;;;;;5012294;28;20088;-78
2022/08/16 08:30:58;;;;;;;4.65;2.50;;;24.10;99.90;;;;;;5014620;28;20033;-79
2022/08/16 08:33:24;;;;;;;3.25;2.30;;;24.30;99.90;;;;;;5012576;28;20029;-79
2022/08/16 08:35:50;;;;;;;3.45;2.55;;;24.60;99.90;;;;;;5014219;28;20038;-78
2022/08/16 08:38:16;;;;;;;4.43;2.33;;;24.70;99.90;;;;;;5013382;28;20028;-79
2022/08/16 08:40:43;;;;;;;6.50;3.00;;;24.90;99.90;;;;;;5014160;28;20025;-80
2022/08/16 08:43:11;;;;;;;3.45;2.40;;;25.00;99.90;;;;;;5012291;28;20018;-79
2022/08/16 08:45:38;;;;;;;3.95;2.78;;;25.00;99.90;;;;;;5012890;28;20391;-79
2022/08/16 08:48:04;;;;;;;11.45;3.03;;;25.10;99.90;;;;;;5012363;28;20168;-79
2022/08/16 08:50:30;;;;;;;10.60;3.45;;;25.10;99.90;;;;;;5014034;28;20112;-79
2022/08/16 08:52:56;;;;;;;11.25;3.42;;;25.00;99.90;;;;;;5012185;28;20218;-77
2022/08/16 08:55:22;;;;;;;4.95;3.15;;;25.00;99.90;;;;;;5012705;28;20045;-77
2022/08/16 08:57:50;;;;;;;4.78;3.42;;;25.00;99.90;;;;;;5013408;28;20018;-80
2022/08/16 09:00:19;;;;;;;8.52;3.70;;;24.90;99.90;;;;;;5004649;28;20026;-80
2022/08/16 09:02:45;;;;;;;4.22;3.05;;;25.00;99.90;;;;;;5011844;28;20033;-79
2022/08/16 09:05:12;;;;;;;9.52;3.33;;;25.00;99.90;;;;;;5013860;28;20022;-79
2022/08/16 09:07:38;;;;;;;5.15;3.40;;;25.00;99.90;;;;;;5011934;28;20036;-79
2022/08/16 09:10:06;;;;;;;4.50;3.72;;;25.10;99.90;;;;;;5004790;28;20022;-79
2022/08/16 09:12:32;;;;;;;8.30;3.88;;;25.10;99.90;;;;;;5012960;28;20026;-79
2022/08/16 09:14:59;;;;;;;13.55;3.55;;;25.10;99.90;;;;;;5013454;28;20045;-79
2022/08/16 09:17:25;;;;;;;8.02;4.05;;;25.10;99.90;;;;;;5013129;28;20046;-78
2022/08/16 09:19:54;;;;;;;6.65;3.42;;;25.10;99.90;;;;;;5012108;28;20184;-77
2022/08/16 09:22:20;;;;;;;4.07;3.50;;;25.00;99.90;;;;;;5012662;28;20476;-79
2022/08/16 09:24:46;;;;;;;4.10;3.50;;;25.00;99.90;;;;;;5012146;28;20092;-79
2022/08/16 09:27:12;;;;;;;6.85;3.42;;;25.00;99.90;;;;;;5011164;28;20269;-78
2022/08/16 09:29:37;;;;;;;13.25;3.53;;;25.00;99.90;;;;;;5011984;28;20041;-79
2022/08/16 09:32:03;;;;;;;8.18;3.85;;;24.90;99.90;;;;;;5012785;28;20026;-79
2022/08/16 09:34:29;;;;;;;6.50;3.50;;;24.90;99.90;;;;;;5010526;28;20532;-78
2022/08/16 09:36:56;;;;;;;7.22;3.95;;;24.90;99.90;;;;;;5009139;28;20072;-77
2022/08/16 09:39:24;;;;;;;5.22;3.75;;;24.80;99.90;;;;;;5009531;28;20029;-79
2022/08/16 09:41:50;;;;;;;5.57;3.70;;;24.80;99.90;;;;;;5008196;28;20029;-78
2022/08/16 09:44:19;;;;;;;5.45;3.35;;;24.70;99.90;;;;;;5010603;28;20050;-78
2022/08/16 09:46:45;;;;;;;5.38;3.30;;;24.70;99.90;;;;;;5009348;28;20018;-80
2022/08/16 09:49:12;;;;;;;5.05;3.17;;;24.70;99.90;;;;;;5009185;28;20184;-77
2022/08/16 09:51:38;;;;;;;5.82;3.50;;;24.70;99.90;;;;;;5009284;28;20056;-78
2022/08/16 09:54:05;;;;;;;7.05;3.42;;;24.80;99.90;;;;;;5008855;28;20030;-78
2022/08/16 09:56:34;;;;;;;6.75;3.30;;;24.90;99.90;;;;;;5009685;28;20060;-77
2022/08/16 09:59:01;;;;;;;9.02;3.33;;;25.00;99.90;;;;;;5008660;28;20057;-77
2022/08/16 10:01:27;;;;;;;8.25;3.15;;;25.10;99.90;;;;;;5009272;28;20037;-76
2022/08/16 10:03:56;;;;;;;6.82;3.78;;;25.10;99.90;;;;;;5008635;28;20024;-77
2022/08/16 10:06:23;;;;;;;3.88;3.20;;;25.00;99.90;;;;;;5009355;28;20057;-77
2022/08/16 10:08:49;;;;;;;6.25;3.30;;;25.10;99.90;;;;;;5008559;28;20017;-78
2022/08/16 10:13:59;;;;;;;4.43;3.10;;;25.30;99.90;;;;;;5009606;28;20309;-78
2022/08/16 10:16:26;;;;;;;5.00;3.28;;;25.30;99.90;;;;;;5009293;28;20401;-77
2022/08/16 10:18:52;;;;;;;5.80;3.38;;;25.30;99.90;;;;;;5008401;28;20017;-78
2022/08/16 10:21:18;;;;;;;4.97;3.38;;;25.40;99.90;;;;;;4989572;28;20034;-79
2022/08/16 10:23:44;;;;;;;6.18;3.17;;;25.40;99.90;;;;;;5006140;28;20018;-77
2022/08/16 10:26:11;;;;;;;5.65;3.40;;;25.40;99.90;;;;;;5008838;28;20081;-78
2022/08/16 10:28:37;;;;;;;3.95;2.90;;;25.50;99.90;;;;;;5008168;28;20034;-79
2022/08/16 10:31:04;;;;;;;7.28;3.17;;;25.40;99.90;;;;;;5009156;28;20088;-76
2022/08/16 10:33:32;;;;;;;6.28;4.07;;;25.50;99.90;;;;;;5008244;28;20467;-76
2022/08/16 10:35:59;;;;;;;10.43;3.58;;;25.50;99.90;;;;;;5007563;28;20038;-77
2022/08/16 10:38:26;;;;;;;7.85;3.60;;;25.50;99.90;;;;;;5007994;28;20037;-76
2022/08/16 10:40:53;;;;;;;5.10;3.33;;;25.50;99.90;;;;;;5007188;28;20033;-78
2022/08/16 10:43:19;;;;;;;5.22;3.50;;;25.40;99.90;;;;;;5007983;28;20510;-79
2022/08/16 10:45:47;;;;;;;3.85;3.15;;;25.40;99.90;;;;;;5009885;28;20120;-79
2022/08/16 10:48:12;;;;;;;5.30;3.17;;;25.40;99.90;;;;;;5006870;28;20022;-79
2022/08/16 10:50:39;;;;;;;4.78;3.00;;;25.40;99.90;;;;;;5008799;28;20026;-79
2022/08/16 10:53:05;;;;;;;5.82;3.10;;;25.50;99.90;;;;;;5007427;28;20073;-78
2022/08/16 10:55:35;;;;;;;4.18;3.20;;;25.60;99.90;;;;;;5008565;28;20097;-79
2022/08/16 10:58:07;;;;;;;3.15;2.80;;;25.70;99.90;;;;;;5007848;28;20467;-78
2022/08/16 11:00:34;;;;;;;4.57;3.03;;;25.80;99.90;;;;;;5008370;28;20369;-78
2022/08/16 11:03:02;;;;;;;7.60;3.10;;;25.90;99.90;;;;;;5007926;28;20030;-78
2022/08/16 11:05:33;;;;;;;4.88;2.97;;;25.90;99.90;;;;;;5008187;28;20514;-78
2022/08/16 11:07:59;;;;;;;6.53;3.03;;;25.90;99.90;;;;;;5006345;28;20370;-78
2022/08/16 11:10:29;;;;;;;4.25;3.17;;;25.90;99.90;;;;;;5008325;28;20034;-78
2022/08/16 11:12:54;;;;;;;3.72;2.80;;;25.90;99.90;;;;;;5006157;28;20369;-78
2022/08/16 11:15:21;;;;;;;4.20;3.13;;;25.90;99.90;;;;;;5008132;28;20045;-77
2022/08/16 11:17:49;;;;;;;5.65;2.80;;;25.90;99.90;;;;;;5007448;28;20099;-78
2022/08/16 11:20:16;;;;;;;4.68;2.75;;;25.90;99.90;;;;;;5000204;28;20030;-77
2022/08/16 11:22:43;;;;;;;5.20;3.00;;;25.80;99.90;;;;;;5007552;28;20028;-78
2022/08/16 11:25:10;;;;;;;4.90;2.95;;;25.90;99.90;;;;;;5007275;28;20430;-78
2022/08/16 11:27:36;;;;;;;3.08;2.78;;;26.00;99.90;;;;;;5007267;28;20080;-77
2022/08/16 11:30:04;;;;;;;3.00;2.70;;;26.10;99.90;;;;;;5008160;28;20489;-77
2022/08/16 11:32:30;;;;;;;3.28;2.83;;;26.10;99.90;;;;;;5007089;28;20540;-77
2022/08/16 11:34:56;;;;;;;5.70;2.72;;;26.20;99.90;;;;;;5006199;28;20121;-77
2022/08/16 11:37:22;;;;;;;7.53;3.13;;;26.20;99.90;;;;;;5005637;28;20378;-77
2022/08/16 11:39:48;;;;;;;4.25;3.10;;;26.20;99.90;;;;;;5006548;28;20022;-77
2022/08/16 11:42:14;;;;;;;7.47;2.92;;;26.30;99.90;;;;;;5007486;28;20100;-76
2022/08/16 11:44:40;;;;;;;4.15;2.95;;;26.20;99.90;;;;;;5007683;28;20034;-79
2022/08/16 11:47:06;;;;;;;5.40;3.17;;;26.20;99.90;;;;;;5007335;28;20030;-77
2022/08/16 11:49:31;;;;;;;4.68;2.95;;;26.20;99.90;;;;;;5007709;28;20037;-77
2022/08/16 11:51:57;;;;;;;6.97;3.20;;;26.20;99.90;;;;;;5006713;28;20046;-76
2022/08/16 11:54:23;;;;;;;6.72;2.90;;;26.20;99.90;;;;;;5007606;28;20033;-76
2022/08/16 11:56:50;;;;;;;5.32;3.00;;;26.40;99.90;;;;;;5005876;28;20396;-77
2022/08/16 11:59:18;;;;;;;7.15;3.35;;;26.50;99.90;;;;;;5006023;28;20076;-76
2022/08/16 12:01:44;;;;;;;6.00;3.13;;;26.50;99.90;;;;;;5007560;28;20436;-78
2022/08/16 12:04:10;;;;;;;4.70;3.22;;;26.40;99.90;;;;;;5021763;28;20440;-78
2022/08/16 12:06:36;;;;;;;5.75;2.70;;;26.40;99.90;;;;;;5007516;28;20022;-78
2022/08/16 12:09:04;;;;;;;6.55;3.40;;;26.40;99.90;;;;;;5005280;28;20081;-77
2022/08/16 12:11:31;;;;;;;9.63;3.05;;;26.60;99.90;;;;;;5007625;28;20455;-76
2022/08/16 12:13:58;;;;;;;4.05;2.80;;;27.40;99.90;;;;;;5006866;28;20041;-75
2022/08/16 12:16:24;;;;;;;4.60;2.38;;;28.40;99.90;;;;;;5007210;28;20029;-77
2022/08/16 12:18:50;;;;;;;4.70;2.55;;;29.70;99.90;;;;;;5006748;28;20034;-77
2022/08/16 12:21:16;;;;;;;5.82;3.00;;;30.60;99.90;;;;;;5006164;28;20029;-77
2022/08/16 12:23:42;;;;;;;5.20;2.83;;;31.90;99.90;;;;;;5005677;28;20080;-77
2022/08/16 12:26:08;;;;;;;7.15;2.65;;;32.50;99.90;;;;;;5006198;28;20426;-75
2022/08/16 12:28:33;;;;;;;3.50;2.60;;;32.80;99.90;;;;;;5006792;28;20115;-76
2022/08/16 12:30:59;;;;;;;3.72;2.38;;;33.50;99.90;;;;;;5005665;28;20038;-77
2022/08/16 12:33:25;;;;;;;9.50;2.70;;;33.90;99.90;;;;;;5006640;28;20086;-76
2022/08/16 12:35:51;;;;;;;3.22;2.25;;;34.30;99.90;;;;;;5011851;28;20045;-77
2022/08/16 12:38:17;;;;;;;5.28;2.33;;;34.30;99.90;;;;;;5010061;28;20041;-76
2022/08/16 12:40:45;;;;;;;2.58;1.90;;;34.40;99.90;;;;;;5011174;28;20057;-76